Time;durP1;ratioP1;P1;durP2;ratioP2;P2;SDS_P1;SDS_P2;PMS_P1;PMS_P2;Temp;Humidity;BMP_temperature;BMP_pressure;BME280_temperature;BME280_humidity;BME280_pressure;Samples;Min_cycle;Max_cycle;Signal;HPM_P1;HPM_P2
2022/10/01 00:00:51;;;;;;;;;;;;;;;;;;2132228;27;19923;-45
2022/10/01 00:01:51;;;;;;;;;;;;;;;;;;2132264;27;20336;-45
2022/10/01 00:02:53;;;;;;;;;;;;;;;;;;2132549;27;20044;-46
2022/10/01 00:03:54;;;;;;;;;;;;;;;;;;2132388;27;20376;-44
2022/10/01 00:04:55;;;;;;;;;;;;;;;;;;2132525;27;19955;-45
2022/10/01 00:05:56;;;;;;;;;;;;;;;;;;2132375;27;19927;-45
2022/10/01 00:06:59;;;;;;;;;;;;;;;;;;2132515;27;19967;-45
2022/10/01 00:08:00;;;;;;;;;;;;;;;;;;2132367;27;19975;-44
2022/10/01 00:09:00;;;;;;;;;;;;;;;;;;2132310;27;19930;-45
2022/10/01 00:10:01;;;;;;;;;;;;;;;;;;2132349;27;19927;-45
2022/10/01 00:11:02;;;;;;;;;;;;;;;;;;2132070;27;20003;-46
2022/10/01 00:12:03;;;;;;;;;;;;;;;;;;2132338;27;19923;-45
2022/10/01 00:13:04;;;;;;;;;;;;;;;;;;2132486;27;19980;-45
2022/10/01 00:14:05;;;;;;;;;;;;;;;;;;2132296;27;20334;-45
2022/10/01 00:15:08;;;;;;;;;;;;;;;;;;2132287;27;19945;-45
2022/10/01 00:16:12;;;;;;;;;;;;;;;;;;2132541;27;19949;-44
2022/10/01 00:17:13;;;;;;;;;;;;;;;;;;2132117;27;19930;-45
2022/10/01 00:18:14;;;;;;;;;;;;;;;;;;2132370;27;19924;-45
2022/10/01 00:19:14;;;;;;;;;;;;;;;;;;2132403;27;19972;-45
2022/10/01 00:20:15;;;;;;;;;;;;;;;;;;2132364;27;19984;-46
2022/10/01 00:21:16;;;;;;;;;;;;;;;;;;2132380;27;19998;-44
2022/10/01 00:22:18;;;;;;;;;;;;;;;;;;2132243;27;19999;-44
2022/10/01 00:23:18;;;;;;;;;;;;;;;;;;2132355;27;19927;-43
2022/10/01 00:24:19;;;;;;;;;;;;;;;;;;2132232;27;19923;-43
2022/10/01 00:25:21;;;;;;;;;;;;;;;;;;2132254;27;19968;-44
2022/10/01 00:26:22;;;;;;;;;;;;;;;;;;2132092;27;19930;-43
2022/10/01 00:27:23;;;;;;;;;;;;;;;;;;2132227;27;19950;-43
2022/10/01 00:28:24;;;;;;;;;;;;;;;;;;2132263;27;19924;-43
2022/10/01 00:29:25;;;;;;;;;;;;;;;;;;2132205;27;20432;-43
2022/10/01 00:30:26;;;;;;;;;;;;;;;;;;2132118;27;19975;-43
2022/10/01 00:31:27;;;;;;;;;;;;;;;;;;2132100;27;19970;-43
2022/10/01 00:32:31;;;;;;;;;;;;;;;;;;2132281;27;19926;-43
2022/10/01 00:33:32;;;;;;;;;;;;;;;;;;2132125;27;19923;-43
2022/10/01 00:34:32;;;;;;;;;;;;;;;;;;2132219;27;19923;-43
2022/10/01 00:35:33;;;;;;;;;;;;;;;;;;2131657;27;19977;-43
2022/10/01 00:36:34;;;;;;;;;;;;;;;;;;2132049;27;19929;-43
2022/10/01 00:37:36;;;;;;;;;;;;;;;;;;2132099;27;19930;-43
2022/10/01 00:38:37;;;;;;;;;;;;;;;;;;2132207;27;20379;-43
2022/10/01 00:39:38;;;;;;;;;;;;;;;;;;2132244;27;19923;-43
2022/10/01 00:40:38;;;;;;;;;;;;;;;;;;2132152;27;19923;-43
2022/10/01 00:41:39;;;;;;;;;;;;;;;;;;2132144;27;20299;-43
2022/10/01 00:42:40;;;;;;;;;;;;;;;;;;2132220;27;19923;-43
2022/10/01 00:43:41;;;;;;;;;;;;;;;;;;2132254;27;20373;-43
2022/10/01 00:44:42;;;;;;;;;;;;;;;;;;2132332;27;19974;-43
2022/10/01 00:45:43;;;;;;;;;;;;;;;;;;2132014;27;20026;-43
2022/10/01 00:46:46;;;;;;;;;;;;;;;;;;2132149;27;19951;-44
2022/10/01 00:47:49;;;;;;;;;;;;;;;;;;2131601;27;19930;-43
2022/10/01 00:48:49;;;;;;;;;;;;;;;;;;2132148;27;19930;-43
2022/10/01 00:49:50;;;;;;;;;;;;;;;;;;2132160;27;19923;-43
2022/10/01 00:50:51;;;;;;;;;;;;;;;;;;2132054;27;19923;-42
2022/10/01 00:51:52;;;;;;;;;;;;;;;;;;2132149;27;20193;-43
2022/10/01 00:52:53;;;;;;;;;;;;;;;;;;2132161;27;19976;-43
2022/10/01 00:53:55;;;;;;;;;;;;;;;;;;2131965;27;19958;-42
2022/10/01 00:54:56;;;;;;;;;;;;;;;;;;2131860;27;20031;-42
2022/10/01 00:55:58;;;;;;;;;;;;;;;;;;2132172;27;20000;-42
2022/10/01 00:56:59;;;;;;;;;;;;;;;;;;2131975;27;20380;-43
2022/10/01 00:58:00;;;;;;;;;;;;;;;;;;2132037;27;19972;-42
2022/10/01 00:59:01;;;;;;;;;;;;;;;;;;2132139;27;19923;-43
2022/10/01 01:00:02;;;;;;;;;;;;;;;;;;2132088;27;19930;-42
2022/10/01 01:01:02;;;;;;;;;;;;;;;;;;2132120;27;19923;-43
2022/10/01 01:02:04;;;;;;;;;;;;;;;;;;2131941;27;20014;-43
2022/10/01 01:03:04;;;;;;;;;;;;;;;;;;2132086;27;19930;-42
2022/10/01 01:04:15;;;;;;;;;;;;;;;;;;2132148;27;20414;-42
2022/10/01 01:05:16;;;;;;;;;;;;;;;;;;2131982;27;19947;-43
2022/10/01 01:06:17;;;;;;;;;;;;;;;;;;2132018;27;19966;-42
2022/10/01 01:07:18;;;;;;;;;;;;;;;;;;2132078;27;19942;-42
2022/10/01 01:08:18;;;;;;;;;;;;;;;;;;2131975;27;19923;-43
2022/10/01 01:09:19;;;;;;;;;;;;;;;;;;2131955;27;20017;-43
2022/10/01 01:10:20;;;;;;;;;;;;;;;;;;2132106;27;19923;-43
2022/10/01 01:11:21;;;;;;;;;;;;;;;;;;2131211;27;19992;-42
2022/10/01 01:12:23;;;;;;;;;;;;;;;;;;2131957;27;19948;-43
2022/10/01 01:13:24;;;;;;;;;;;;;;;;;;2131900;27;20269;-43
2022/10/01 01:14:25;;;;;;;;;;;;;;;;;;2132059;27;19933;-42
2022/10/01 01:15:26;;;;;;;;;;;;;;;;;;2132146;27;19930;-42
2022/10/01 01:16:28;;;;;;;;;;;;;;;;;;2131834;27;19974;-42
2022/10/01 01:17:28;;;;;;;;;;;;;;;;;;2131822;27;19923;-42
2022/10/01 01:18:29;;;;;;;;;;;;;;;;;;2131870;27;20334;-42
2022/10/01 01:19:30;;;;;;;;;;;;;;;;;;2132160;27;19974;-42
2022/10/01 01:20:31;;;;;;;;;;;;;;;;;;2131848;27;19930;-42
2022/10/01 01:21:32;;;;;;;;;;;;;;;;;;2131929;27;20364;-43
2022/10/01 01:22:33;;;;;;;;;;;;;;;;;;2131863;27;19923;-43
2022/10/01 01:23:33;;;;;;;;;;;;;;;;;;2131953;27;19930;-42
2022/10/01 01:24:34;;;;;;;;;;;;;;;;;;2131850;27;20339;-42
2022/10/01 01:25:35;;;;;;;;;;;;;;;;;;2131959;27;19930;-42
2022/10/01 01:26:37;;;;;;;;;;;;;;;;;;2131690;27;19923;-42
2022/10/01 01:27:38;;;;;;;;;;;;;;;;;;2131814;27;20014;-42
2022/10/01 01:28:39;;;;;;;;;;;;;;;;;;2132026;27;19923;-42
2022/10/01 01:29:40;;;;;;;;;;;;;;;;;;2131807;27;20280;-42
2022/10/01 01:30:41;;;;;;;;;;;;;;;;;;2131951;27;19923;-42
2022/10/01 01:31:41;;;;;;;;;;;;;;;;;;2131596;27;19946;-42
2022/10/01 01:32:44;;;;;;;;;;;;;;;;;;2131810;27;19934;-43
2022/10/01 01:33:45;;;;;;;;;;;;;;;;;;2131857;27;19923;-42
2022/10/01 01:34:46;;;;;;;;;;;;;;;;;;2131792;27;20014;-42
2022/10/01 01:35:47;;;;;;;;;;;;;;;;;;2131778;27;20371;-42
2022/10/01 01:36:48;;;;;;;;;;;;;;;;;;2131868;27;20014;-43
2022/10/01 01:37:49;;;;;;;;;;;;;;;;;;2131821;27;20366;-42
2022/10/01 01:38:53;;;;;;;;;;;;;;;;;;2132030;27;19923;-42
2022/10/01 01:39:55;;;;;;;;;;;;;;;;;;2131935;27;19959;-43
2022/10/01 01:40:55;;;;;;;;;;;;;;;;;;2131820;27;19931;-42
2022/10/01 01:41:56;;;;;;;;;;;;;;;;;;2131555;27;19923;-44
2022/10/01 01:42:57;;;;;;;;;;;;;;;;;;2123110;28;20135;-42
2022/10/01 01:43:58;;;;;;;;;;;;;;;;;;2123338;28;19962;-42
2022/10/01 01:44:59;;;;;;;;;;;;;;;;;;2123260;28;19923;-42
2022/10/01 01:46:00;;;;;;;;;;;;;;;;;;2123361;28;19923;-42
2022/10/01 01:47:01;;;;;;;;;;;;;;;;;;2123031;27;20018;-43
2022/10/01 01:48:02;;;;;;;;;;;;;;;;;;2123299;28;20376;-42
2022/10/01 01:49:03;;;;;;;;;;;;;;;;;;2123350;28;19928;-42
2022/10/01 01:50:05;;;;;;;;;;;;;;;;;;2123148;28;19968;-42
2022/10/01 01:51:05;;;;;;;;;;;;;;;;;;2130572;27;19927;-42
2022/10/01 01:52:06;;;;;;;;;;;;;;;;;;2131608;27;19923;-42
2022/10/01 01:53:07;;;;;;;;;;;;;;;;;;2131843;27;19929;-42
2022/10/01 01:54:08;;;;;;;;;;;;;;;;;;2131768;27;19934;-42
2022/10/01 01:55:09;;;;;;;;;;;;;;;;;;2131724;27;19923;-42
2022/10/01 01:56:10;;;;;;;;;;;;;;;;;;2131582;27;19945;-42
2022/10/01 01:57:12;;;;;;;;;;;;;;;;;;2131746;27;19923;-42
2022/10/01 01:58:12;;;;;;;;;;;;;;;;;;2131796;27;19927;-42
2022/10/01 01:59:18;;;;;;;;;;;;;;;;;;2131798;27;19923;-42
2022/10/01 02:00:21;;;;;;;;;;;;;;;;;;2131856;27;19954;-42
2022/10/01 02:01:21;;;;;;;;;;;;;;;;;;2131992;27;19923;-42
2022/10/01 02:02:22;;;;;;;;;;;;;;;;;;2131847;27;19977;-42
2022/10/01 02:03:23;;;;;;;;;;;;;;;;;;2131668;27;19923;-42
2022/10/01 02:04:24;;;;;;;;;;;;;;;;;;2131689;27;20322;-42
2022/10/01 02:05:25;;;;;;;;;;;;;;;;;;2131642;27;19927;-42
2022/10/01 02:06:26;;;;;;;;;;;;;;;;;;2131527;27;19968;-42
2022/10/01 02:07:27;;;;;;;;;;;;;;;;;;2131640;27;19930;-42
2022/10/01 02:08:28;;;;;;;;;;;;;;;;;;2131746;27;20014;-43
2022/10/01 02:09:28;;;;;;;;;;;;;;;;;;2131761;27;19927;-42
2022/10/01 02:10:29;;;;;;;;;;;;;;;;;;2131891;27;20393;-42
2022/10/01 02:11:30;;;;;;;;;;;;;;;;;;2131429;27;19930;-42
2022/10/01 02:12:32;;;;;;;;;;;;;;;;;;2131814;27;20276;-42
2022/10/01 02:13:33;;;;;;;;;;;;;;;;;;2131970;27;19975;-43
2022/10/01 02:14:34;;;;;;;;;;;;;;;;;;2131878;27;19922;-43
2022/10/01 02:15:36;;;;;;;;;;;;;;;;;;2131605;27;19923;-42
2022/10/01 02:16:37;;;;;;;;;;;;;;;;;;2131549;27;19930;-42
2022/10/01 02:17:37;;;;;;;;;;;;;;;;;;2131718;27;19974;-42
2022/10/01 02:18:39;;;;;;;;;;;;;;;;;;2131548;27;19966;-42
2022/10/01 02:19:40;;;;;;;;;;;;;;;;;;2131559;27;20364;-42
2022/10/01 02:20:40;;;;;;;;;;;;;;;;;;2131698;27;19968;-42
2022/10/01 02:21:41;;;;;;;;;;;;;;;;;;2131503;27;20319;-43
2022/10/01 02:22:42;;;;;;;;;;;;;;;;;;2131539;27;19927;-42
2022/10/01 02:23:43;;;;;;;;;;;;;;;;;;2132499;27;20401;-42
2022/10/01 02:24:44;;;;;;;;;;;;;;;;;;2133177;27;19970;-43
2022/10/01 02:25:44;;;;;;;;;;;;;;;;;;2132955;27;19923;-42
2022/10/01 02:26:45;;;;;;;;;;;;;;;;;;2133190;27;19937;-43
2022/10/01 02:27:46;;;;;;;;;;;;;;;;;;2133212;27;20273;-42
2022/10/01 02:28:47;;;;;;;;;;;;;;;;;;2133012;27;20005;-43
2022/10/01 02:29:48;;;;;;;;;;;;;;;;;;2132975;27;19967;-43
2022/10/01 02:30:49;;;;;;;;;;;;;;;;;;2133342;27;19923;-45
2022/10/01 02:31:52;;;;;;;;;;;;;;;;;;2132897;27;20333;-44
2022/10/01 02:32:53;;;;;;;;;;;;;;;;;;2132893;27;20417;-45
2022/10/01 02:33:53;;;;;;;;;;;;;;;;;;2133118;27;19923;-44
2022/10/01 02:34:54;;;;;;;;;;;;;;;;;;2132919;27;19929;-44
2022/10/01 02:35:55;;;;;;;;;;;;;;;;;;2132921;27;19923;-44
2022/10/01 02:36:56;;;;;;;;;;;;;;;;;;2132882;27;20376;-44
2022/10/01 02:37:57;;;;;;;;;;;;;;;;;;2132956;27;19947;-45
2022/10/01 02:38:58;;;;;;;;;;;;;;;;;;2132939;27;19965;-45
2022/10/01 02:39:59;;;;;;;;;;;;;;;;;;2132961;27;19930;-44
2022/10/01 02:41:00;;;;;;;;;;;;;;;;;;2133021;27;19930;-44
2022/10/01 02:42:00;;;;;;;;;;;;;;;;;;2132869;27;19923;-44
2022/10/01 02:43:01;;;;;;;;;;;;;;;;;;2133020;27;19927;-45
2022/10/01 02:44:02;;;;;;;;;;;;;;;;;;2132949;27;19926;-45
2022/10/01 02:45:03;;;;;;;;;;;;;;;;;;2132904;27;20360;-44
2022/10/01 02:46:04;;;;;;;;;;;;;;;;;;2132805;27;20025;-44
2022/10/01 02:47:06;;;;;;;;;;;;;;;;;;2132744;27;20460;-45
2022/10/01 02:48:07;;;;;;;;;;;;;;;;;;2133081;27;19923;-42
2022/10/01 02:49:08;;;;;;;;;;;;;;;;;;2133121;27;19923;-42
2022/10/01 02:50:09;;;;;;;;;;;;;;;;;;2132918;27;20252;-42
2022/10/01 02:51:10;;;;;;;;;;;;;;;;;;2132819;27;19922;-42
2022/10/01 02:52:10;;;;;;;;;;;;;;;;;;2132877;27;20360;-43
2022/10/01 02:53:11;;;;;;;;;;;;;;;;;;2132796;27;19923;-42
2022/10/01 02:54:12;;;;;;;;;;;;;;;;;;2132857;27;20025;-42
2022/10/01 02:55:13;;;;;;;;;;;;;;;;;;2132869;27;20002;-42
2022/10/01 02:57:21;;;;;;;;;;;;;;;;;;2132957;27;20431;-42
2022/10/01 02:57:35;;;;;;;;;;;;;;;;;;2133049;27;19927;-44
2022/10/01 02:58:36;;;;;;;;;;;;;;;;;;2132904;27;19923;-44
2022/10/01 02:59:36;;;;;;;;;;;;;;;;;;2132774;27;20265;-45
2022/10/01 03:00:37;;;;;;;;;;;;;;;;;;2132928;27;19923;-45
2022/10/01 03:01:38;;;;;;;;;;;;;;;;;;2132775;27;19927;-44
2022/10/01 03:02:39;;;;;;;;;;;;;;;;;;2132808;27;20394;-44
2022/10/01 03:03:40;;;;;;;;;;;;;;;;;;2132930;27;19923;-44
2022/10/01 03:04:41;;;;;;;;;;;;;;;;;;2132938;27;19923;-45
2022/10/01 03:05:42;;;;;;;;;;;;;;;;;;2132734;27;19966;-45
2022/10/01 03:06:43;;;;;;;;;;;;;;;;;;2132801;27;19923;-44
2022/10/01 03:07:44;;;;;;;;;;;;;;;;;;2132882;27;20021;-44
2022/10/01 03:08:45;;;;;;;;;;;;;;;;;;2132636;27;20009;-44
2022/10/01 03:09:46;;;;;;;;;;;;;;;;;;2132852;27;20344;-45
2022/10/01 03:10:46;;;;;;;;;;;;;;;;;;2132768;27;19930;-44
2022/10/01 03:11:47;;;;;;;;;;;;;;;;;;2132548;27;19930;-45
2022/10/01 03:12:49;;;;;;;;;;;;;;;;;;2132820;27;19930;-44
2022/10/01 03:13:51;;;;;;;;;;;;;;;;;;2132837;27;19937;-45
2022/10/01 03:14:52;;;;;;;;;;;;;;;;;;2132846;27;19930;-44
2022/10/01 03:15:53;;;;;;;;;;;;;;;;;;2132657;27;19927;-45
2022/10/01 03:16:54;;;;;;;;;;;;;;;;;;2132826;27;20092;-45
2022/10/01 03:17:55;;;;;;;;;;;;;;;;;;2132655;27;20379;-44
2022/10/01 03:18:55;;;;;;;;;;;;;;;;;;2132849;27;19971;-44
2022/10/01 03:19:56;;;;;;;;;;;;;;;;;;2132720;27;19971;-45
2022/10/01 03:20:57;;;;;;;;;;;;;;;;;;2132635;27;20071;-44
2022/10/01 03:21:58;;;;;;;;;;;;;;;;;;2132729;27;19923;-44
2022/10/01 03:22:59;;;;;;;;;;;;;;;;;;2132806;27;19923;-45
2022/10/01 03:24:00;;;;;;;;;;;;;;;;;;2132599;27;20281;-46
2022/10/01 03:25:01;;;;;;;;;;;;;;;;;;2132750;27;19923;-45
2022/10/01 03:26:01;;;;;;;;;;;;;;;;;;2132644;27;20035;-45
2022/10/01 03:27:02;;;;;;;;;;;;;;;;;;2132666;27;19934;-44
2022/10/01 03:28:03;;;;;;;;;;;;;;;;;;2132593;27;19946;-45
2022/10/01 03:29:05;;;;;;;;;;;;;;;;;;2132601;27;19946;-45
2022/10/01 03:30:06;;;;;;;;;;;;;;;;;;2132729;27;19934;-46
2022/10/01 03:31:06;;;;;;;;;;;;;;;;;;2132636;27;19940;-45
2022/10/01 03:32:07;;;;;;;;;;;;;;;;;;2132611;27;19923;-45
2022/10/01 03:33:08;;;;;;;;;;;;;;;;;;2132555;27;20284;-45
2022/10/01 03:34:10;;;;;;;;;;;;;;;;;;2132268;27;19930;-45
2022/10/01 03:35:11;;;;;;;;;;;;;;;;;;2132576;27;19923;-44
2022/10/01 03:36:12;;;;;;;;;;;;;;;;;;2132897;27;19923;-44
2022/10/01 03:37:13;;;;;;;;;;;;;;;;;;2132623;27;20379;-45
2022/10/01 03:38:14;;;;;;;;;;;;;;;;;;2132487;27;19923;-45
2022/10/01 03:39:14;;;;;;;;;;;;;;;;;;2132560;27;19968;-45
2022/10/01 03:40:15;;;;;;;;;;;;;;;;;;2132546;27;19964;-45
2022/10/01 03:41:16;;;;;;;;;;;;;;;;;;2132511;27;19929;-45
2022/10/01 03:42:17;;;;;;;;;;;;;;;;;;2132484;27;19975;-46
2022/10/01 03:43:18;;;;;;;;;;;;;;;;;;2132571;27;19962;-45
2022/10/01 03:44:19;;;;;;;;;;;;;;;;;;2132475;27;19978;-45
2022/10/01 03:45:20;;;;;;;;;;;;;;;;;;2132668;27;19983;-46
2022/10/01 03:46:21;;;;;;;;;;;;;;;;;;2132322;27;20454;-45
2022/10/01 03:47:23;;;;;;;;;;;;;;;;;;2132501;27;20021;-44
2022/10/01 03:48:24;;;;;;;;;;;;;;;;;;2132605;27;19930;-44
2022/10/01 03:49:24;;;;;;;;;;;;;;;;;;2132473;27;19927;-44
2022/10/01 03:50:25;;;;;;;;;;;;;;;;;;2132450;27;20295;-44
2022/10/01 03:51:26;;;;;;;;;;;;;;;;;;2132389;27;19969;-45
2022/10/01 03:52:27;;;;;;;;;;;;;;;;;;2132824;27;19923;-42
2022/10/01 03:53:30;;;;;;;;;;;;;;;;;;2132428;27;19927;-42
2022/10/01 03:54:31;;;;;;;;;;;;;;;;;;2132606;27;19930;-42
2022/10/01 03:55:31;;;;;;;;;;;;;;;;;;2132413;27;20058;-42
2022/10/01 03:56:32;;;;;;;;;;;;;;;;;;2132535;27;20150;-42
2022/10/01 03:57:33;;;;;;;;;;;;;;;;;;2132374;27;19927;-42
2022/10/01 03:58:34;;;;;;;;;;;;;;;;;;2132640;27;19924;-42
2022/10/01 03:59:35;;;;;;;;;;;;;;;;;;2132408;27;19970;-42
2022/10/01 04:00:36;;;;;;;;;;;;;;;;;;2132318;27;19923;-42
2022/10/01 04:01:37;;;;;;;;;;;;;;;;;;2131922;27;20009;-42
2022/10/01 04:02:38;;;;;;;;;;;;;;;;;;2132392;27;19930;-42
2022/10/01 04:03:40;;;;;;;;;;;;;;;;;;2132413;27;20283;-42
2022/10/01 04:04:41;;;;;;;;;;;;;;;;;;2132376;27;19923;-42
2022/10/01 04:05:41;;;;;;;;;;;;;;;;;;2132492;27;19965;-42
2022/10/01 04:06:42;;;;;;;;;;;;;;;;;;2132474;27;20280;-45
2022/10/01 04:07:43;;;;;;;;;;;;;;;;;;2132376;27;19923;-46
2022/10/01 04:08:44;;;;;;;;;;;;;;;;;;2132346;27;19924;-45
2022/10/01 04:09:45;;;;;;;;;;;;;;;;;;2132562;27;19923;-45
2022/10/01 04:10:47;;;;;;;;;;;;;;;;;;2132357;27;20085;-44
2022/10/01 04:11:48;;;;;;;;;;;;;;;;;;2132421;27;19923;-44
2022/10/01 04:12:48;;;;;;;;;;;;;;;;;;2132463;27;19976;-44
2022/10/01 04:13:49;;;;;;;;;;;;;;;;;;2132349;27;20341;-45
2022/10/01 04:14:50;;;;;;;;;;;;;;;;;;2132317;27;20288;-44
2022/10/01 04:15:52;;;;;;;;;;;;;;;;;;2132581;27;19923;-44
2022/10/01 04:16:52;;;;;;;;;;;;;;;;;;2132326;27;19927;-42
2022/10/01 04:17:53;;;;;;;;;;;;;;;;;;2132377;27;20464;-43
2022/10/01 04:18:54;;;;;;;;;;;;;;;;;;2132461;27;19927;-42
2022/10/01 04:19:56;;;;;;;;;;;;;;;;;;2132383;27;20359;-42
2022/10/01 04:20:57;;;;;;;;;;;;;;;;;;2132216;27;19931;-42
2022/10/01 04:21:58;;;;;;;;;;;;;;;;;;2132235;27;20030;-42
2022/10/01 04:22:59;;;;;;;;;;;;;;;;;;2132403;27;19930;-42
2022/10/01 04:24:01;;;;;;;;;;;;;;;;;;2132224;27;19981;-42
2022/10/01 04:25:02;;;;;;;;;;;;;;;;;;2132246;27;20412;-43
2022/10/01 04:26:03;;;;;;;;;;;;;;;;;;2132249;27;19933;-42
2022/10/01 04:27:04;;;;;;;;;;;;;;;;;;2132180;27;19958;-43
2022/10/01 04:28:05;;;;;;;;;;;;;;;;;;2132385;27;19958;-42
2022/10/01 04:29:06;;;;;;;;;;;;;;;;;;2132159;27;20387;-42
2022/10/01 04:30:07;;;;;;;;;;;;;;;;;;2132357;27;20014;-42
2022/10/01 04:31:25;;;;;;;;;;;;;;;;;;2132215;27;19923;-42
2022/10/01 04:32:26;;;;;;;;;;;;;;;;;;2132356;27;20376;-44
2022/10/01 04:33:27;;;;;;;;;;;;;;;;;;2132245;27;20014;-44
2022/10/01 04:35:44;;;;;;;;;;;;;;;;;;2131242;27;19948;-44
2022/10/01 04:36:45;;;;;;;;;;;;;;;;;;2132134;27;20489;-45
2022/10/01 04:37:46;;;;;;;;;;;;;;;;;;2132176;27;19972;-45
2022/10/01 04:38:47;;;;;;;;;;;;;;;;;;2132134;27;19930;-44
2022/10/01 04:39:48;;;;;;;;;;;;;;;;;;2132283;27;19972;-45
2022/10/01 04:40:49;;;;;;;;;;;;;;;;;;2132136;27;19923;-44
2022/10/01 04:41:50;;;;;;;;;;;;;;;;;;2132185;27;20019;-45
2022/10/01 04:42:51;;;;;;;;;;;;;;;;;;2131959;27;19953;-45
2022/10/01 04:43:52;;;;;;;;;;;;;;;;;;2132251;27;19923;-45
2022/10/01 04:44:52;;;;;;;;;;;;;;;;;;2132024;27;20014;-45
2022/10/01 04:45:53;;;;;;;;;;;;;;;;;;2131638;27;20376;-45
2022/10/01 04:46:54;;;;;;;;;;;;;;;;;;2131753;27;20359;-45
2022/10/01 04:47:55;;;;;;;;;;;;;;;;;;2132030;27;19964;-45
2022/10/01 04:48:55;;;;;;;;;;;;;;;;;;2132098;27;19923;-45
2022/10/01 04:49:56;;;;;;;;;;;;;;;;;;2132084;27;19923;-45
2022/10/01 04:50:57;;;;;;;;;;;;;;;;;;2132298;27;19923;-43
2022/10/01 04:51:58;;;;;;;;;;;;;;;;;;2132023;27;19968;-43
2022/10/01 04:52:59;;;;;;;;;;;;;;;;;;2132068;27;19924;-43
2022/10/01 04:54:00;;;;;;;;;;;;;;;;;;2132057;27;20036;-43
2022/10/01 04:55:00;;;;;;;;;;;;;;;;;;2132050;27;19929;-43
2022/10/01 04:56:01;;;;;;;;;;;;;;;;;;2132107;27;19974;-43
2022/10/01 04:57:02;;;;;;;;;;;;;;;;;;2132065;27;19958;-43
2022/10/01 04:58:03;;;;;;;;;;;;;;;;;;2132201;27;19934;-43
2022/10/01 04:59:04;;;;;;;;;;;;;;;;;;2132001;27;19930;-42
2022/10/01 05:00:05;;;;;;;;;;;;;;;;;;2132051;27;19924;-43
2022/10/01 05:01:06;;;;;;;;;;;;;;;;;;2132188;27;19958;-43
2022/10/01 05:02:07;;;;;;;;;;;;;;;;;;2132315;27;19929;-45
2022/10/01 05:03:07;;;;;;;;;;;;;;;;;;2131944;27;19923;-45
2022/10/01 05:04:08;;;;;;;;;;;;;;;;;;2131947;27;19923;-45
2022/10/01 05:05:09;;;;;;;;;;;;;;;;;;2132058;27;19933;-45
2022/10/01 05:06:10;;;;;;;;;;;;;;;;;;2131919;27;19927;-45
2022/10/01 05:07:11;;;;;;;;;;;;;;;;;;2132000;27;19923;-45
2022/10/01 05:08:12;;;;;;;;;;;;;;;;;;2131987;27;19923;-45
2022/10/01 05:09:13;;;;;;;;;;;;;;;;;;2132063;27;19958;-45
2022/10/01 05:10:14;;;;;;;;;;;;;;;;;;2132136;27;20370;-45
2022/10/01 05:11:14;;;;;;;;;;;;;;;;;;2131706;27;19930;-45
2022/10/01 05:12:15;;;;;;;;;;;;;;;;;;2131912;27;20006;-45
2022/10/01 05:13:16;;;;;;;;;;;;;;;;;;2132040;27;20362;-45
2022/10/01 05:14:19;;;;;;;;;;;;;;;;;;2132265;27;19972;-45
2022/10/01 05:15:19;;;;;;;;;;;;;;;;;;2132135;27;19930;-45
2022/10/01 05:16:21;;;;;;;;;;;;;;;;;;2132269;27;19993;-43
2022/10/01 05:17:21;;;;;;;;;;;;;;;;;;2132116;27;20010;-45
2022/10/01 05:18:22;;;;;;;;;;;;;;;;;;2131880;27;19927;-45
2022/10/01 05:19:23;;;;;;;;;;;;;;;;;;2131859;27;19999;-46
2022/10/01 05:20:28;;;;;;;;;;;;;;;;;;2131895;27;20391;-45
2022/10/01 05:21:29;;;;;;;;;;;;;;;;;;2131787;27;20387;-45
2022/10/01 05:22:31;;;;;;;;;;;;;;;;;;2132085;27;20375;-43
2022/10/01 05:23:32;;;;;;;;;;;;;;;;;;2131854;27;19996;-43
2022/10/01 05:24:33;;;;;;;;;;;;;;;;;;2131980;27;20058;-43
2022/10/01 05:25:33;;;;;;;;;;;;;;;;;;2131850;27;19923;-43
2022/10/01 05:26:35;;;;;;;;;;;;;;;;;;2131809;27;20026;-44
2022/10/01 05:27:36;;;;;;;;;;;;;;;;;;2131713;27;20391;-43
2022/10/01 05:28:43;;;;;;;;;;;;;;;;;;2132144;27;19924;-45
2022/10/01 05:29:45;;;;;;;;;;;;;;;;;;2132094;27;19923;-43
2022/10/01 05:30:45;;;;;;;;;;;;;;;;;;2131773;27;19937;-43
2022/10/01 05:31:46;;;;;;;;;;;;;;;;;;2131744;27;19923;-43
2022/10/01 05:32:47;;;;;;;;;;;;;;;;;;2131752;27;19923;-43
2022/10/01 05:33:48;;;;;;;;;;;;;;;;;;2131912;27;20006;-43
2022/10/01 05:34:49;;;;;;;;;;;;;;;;;;2131866;27;19981;-43
2022/10/01 05:35:53;;;;;;;;;;;;;;;;;;2131933;27;19930;-43
2022/10/01 05:36:54;;;;;;;;;;;;;;;;;;2131748;27;19946;-43
2022/10/01 05:37:55;;;;;;;;;;;;;;;;;;2131829;27;20396;-43
2022/10/01 05:38:56;;;;;;;;;;;;;;;;;;2131976;27;19930;-45
2022/10/01 05:39:57;;;;;;;;;;;;;;;;;;2131957;27;19944;-45
2022/10/01 05:40:58;;;;;;;;;;;;;;;;;;2131919;27;19923;-46
2022/10/01 05:42:01;;;;;;;;;;;;;;;;;;2131720;27;19983;-45
2022/10/01 05:43:06;;;;;;;;;;;;;;;;;;2131784;27;19927;-46
2022/10/01 05:44:07;;;;;;;;;;;;;;;;;;2131710;27;20017;-45
2022/10/01 05:45:08;;;;;;;;;;;;;;;;;;2131861;27;20021;-45
2022/10/01 05:46:09;;;;;;;;;;;;;;;;;;2131716;27;19923;-45
2022/10/01 05:47:10;;;;;;;;;;;;;;;;;;2131703;27;20003;-45
2022/10/01 05:48:11;;;;;;;;;;;;;;;;;;2131710;27;20025;-45
2022/10/01 05:49:12;;;;;;;;;;;;;;;;;;2131778;27;19923;-45
2022/10/01 05:50:13;;;;;;;;;;;;;;;;;;2131841;27;19927;-45
2022/10/01 05:51:15;;;;;;;;;;;;;;;;;;2131682;27;20403;-45
2022/10/01 05:52:15;;;;;;;;;;;;;;;;;;2131642;27;19923;-47
2022/10/01 05:53:16;;;;;;;;;;;;;;;;;;2131716;27;19978;-45
2022/10/01 05:54:18;;;;;;;;;;;;;;;;;;2131691;27;19927;-45
2022/10/01 05:55:19;;;;;;;;;;;;;;;;;;2131749;27;19923;-45
2022/10/01 05:56:20;;;;;;;;;;;;;;;;;;2131990;27;19969;-45
2022/10/01 05:57:21;;;;;;;;;;;;;;;;;;2132024;27;20018;-46
2022/10/01 05:58:22;;;;;;;;;;;;;;;;;;2133396;27;19924;-45
2022/10/01 05:59:23;;;;;;;;;;;;;;;;;;2133189;27;19931;-46
2022/10/01 06:00:28;;;;;;;;;;;;;;;;;;2133528;27;19923;-45
2022/10/01 06:01:28;;;;;;;;;;;;;;;;;;2133150;27;19927;-45
2022/10/01 06:02:29;;;;;;;;;;;;;;;;;;2133334;27;19983;-45
2022/10/01 06:03:30;;;;;;;;;;;;;;;;;;2133319;27;19923;-46
2022/10/01 06:04:32;;;;;;;;;;;;;;;;;;2133168;27;19923;-45
2022/10/01 06:05:32;;;;;;;;;;;;;;;;;;2133196;27;19923;-45
2022/10/01 06:06:33;;;;;;;;;;;;;;;;;;2132931;27;19946;-45
2022/10/01 06:07:34;;;;;;;;;;;;;;;;;;2133310;27;19923;-45
2022/10/01 06:08:36;;;;;;;;;;;;;;;;;;2133399;27;19946;-43
2022/10/01 06:09:37;;;;;;;;;;;;;;;;;;2133161;27;19923;-43
2022/10/01 06:10:38;;;;;;;;;;;;;;;;;;2133626;27;19937;-46
2022/10/01 06:11:38;;;;;;;;;;;;;;;;;;2132881;27;20399;-44
2022/10/01 06:12:39;;;;;;;;;;;;;;;;;;2133224;27;19923;-43
2022/10/01 06:13:45;;;;;;;;;;;;;;;;;;2133266;27;19930;-44
2022/10/01 06:14:46;;;;;;;;;;;;;;;;;;2133243;27;19923;-44
2022/10/01 06:15:47;;;;;;;;;;;;;;;;;;2133048;27;19930;-44
2022/10/01 06:16:48;;;;;;;;;;;;;;;;;;2133001;27;19930;-44
2022/10/01 06:17:48;;;;;;;;;;;;;;;;;;2133059;27;19923;-44
2022/10/01 06:18:55;;;;;;;;;;;;;;;;;;2133099;27;20421;-43
2022/10/01 06:19:56;;;;;;;;;;;;;;;;;;2133081;27;20292;-44
2022/10/01 06:20:58;;;;;;;;;;;;;;;;;;2133397;27;19923;-44
2022/10/01 06:21:58;;;;;;;;;;;;;;;;;;2132997;27;20372;-44
2022/10/01 06:22:59;;;;;;;;;;;;;;;;;;2132996;27;19975;-44
2022/10/01 06:24:00;;;;;;;;;;;;;;;;;;2133240;27;19924;-45
2022/10/01 06:25:01;;;;;;;;;;;;;;;;;;2133228;27;19923;-45
2022/10/01 06:26:02;;;;;;;;;;;;;;;;;;2133128;27;19977;-45
2022/10/01 06:27:03;;;;;;;;;;;;;;;;;;2132946;27;19976;-46
2022/10/01 06:28:04;;;;;;;;;;;;;;;;;;2133164;27;19923;-45
2022/10/01 06:29:05;;;;;;;;;;;;;;;;;;2133026;27;19927;-45
2022/10/01 06:30:06;;;;;;;;;;;;;;;;;;2132972;27;19970;-45
2022/10/01 06:31:07;;;;;;;;;;;;;;;;;;2133062;27;19923;-46
2022/10/01 06:32:12;;;;;;;;;;;;;;;;;;2132885;27;19991;-45
2022/10/01 06:33:13;;;;;;;;;;;;;;;;;;2133031;27;19992;-46
2022/10/01 06:34:14;;;;;;;;;;;;;;;;;;2133011;27;20398;-48
2022/10/01 06:35:14;;;;;;;;;;;;;;;;;;2133060;27;19923;-49
2022/10/01 06:36:15;;;;;;;;;;;;;;;;;;2132910;27;19923;-45
2022/10/01 06:37:16;;;;;;;;;;;;;;;;;;2132884;27;19938;-45
2022/10/01 06:38:18;;;;;;;;;;;;;;;;;;2132972;27;19923;-45
2022/10/01 06:39:19;;;;;;;;;;;;;;;;;;2132802;27;19923;-45
2022/10/01 06:40:20;;;;;;;;;;;;;;;;;;2132990;27;19923;-46
2022/10/01 06:41:21;;;;;;;;;;;;;;;;;;2133266;27;19923;-44
2022/10/01 06:42:22;;;;;;;;;;;;;;;;;;2132914;27;20296;-45
2022/10/01 06:43:23;;;;;;;;;;;;;;;;;;2132933;27;20010;-44
2022/10/01 06:44:23;;;;;;;;;;;;;;;;;;2132987;27;20504;-45
2022/10/01 06:45:24;;;;;;;;;;;;;;;;;;2132904;27;19923;-45
2022/10/01 06:46:25;;;;;;;;;;;;;;;;;;2132681;27;19974;-44
2022/10/01 06:47:26;;;;;;;;;;;;;;;;;;2132880;27;19923;-45
2022/10/01 06:48:29;;;;;;;;;;;;;;;;;;2132993;27;19930;-45
2022/10/01 06:49:30;;;;;;;;;;;;;;;;;;2132894;27;20001;-46
2022/10/01 06:50:31;;;;;;;;;;;;;;;;;;2132878;27;19923;-45
2022/10/01 06:52:52;;;;;;;;;;;;;;;;;;2133045;27;19927;-45
2022/10/01 06:53:52;;;;;;;;;;;;;;;;;;2132881;27;20258;-45
2022/10/01 06:54:53;;;;;;;;;;;;;;;;;;2132993;27;19927;-44
2022/10/01 06:55:54;;;;;;;;;;;;;;;;;;2132801;27;19923;-45
2022/10/01 06:56:55;;;;;;;;;;;;;;;;;;2132751;27;20394;-45
2022/10/01 06:57:57;;;;;;;;;;;;;;;;;;2132862;27;19923;-45
2022/10/01 06:58:58;;;;;;;;;;;;;;;;;;2132963;27;19930;-45
2022/10/01 06:59:59;;;;;;;;;;;;;;;;;;2133073;27;20376;-46
2022/10/01 07:01:00;;;;;;;;;;;;;;;;;;2132818;27;19923;-45